createdAt,value
2022-08-24T00:01:38.179Z,3.30
2022-08-24T00:04:04.053Z,3.58
2022-08-24T00:06:29.651Z,3.30
2022-08-24T00:08:55.271Z,3.15
2022-08-24T00:11:19.036Z,3.20
2022-08-24T00:13:43.176Z,3.75
2022-08-24T00:16:07.142Z,3.10
2022-08-24T00:18:31.501Z,3.38
2022-08-24T00:20:56.725Z,3.40
2022-08-24T00:23:20.434Z,3.13
2022-08-24T00:25:44.871Z,3.15
2022-08-24T00:28:08.703Z,3.35
2022-08-24T00:30:32.500Z,3.38
2022-08-24T00:32:56.203Z,3.72
2022-08-24T00:35:20.835Z,3.33
2022-08-24T00:37:46.226Z,3.28
2022-08-24T00:40:15.880Z,3.30
2022-08-24T00:42:40.051Z,3.33
2022-08-24T00:45:04.169Z,3.00
2022-08-24T00:47:33.806Z,3.55
2022-08-24T00:50:01.489Z,3.15
2022-08-24T00:52:32.873Z,2.90
2022-08-24T00:55:02.235Z,3.17
2022-08-24T00:57:32.109Z,3.63
2022-08-24T01:00:00.452Z,3.22
2022-08-24T01:02:27.290Z,2.92
2022-08-24T01:05:00.899Z,2.90
2022-08-24T01:07:28.534Z,3.40
2022-08-24T01:09:53.656Z,3.50
2022-08-24T01:12:18.860Z,3.30
2022-08-24T01:14:42.499Z,3.70
2022-08-24T01:17:23.910Z,3.33
2022-08-24T01:19:52.300Z,3.17
2022-08-24T01:22:38.550Z,3.70
2022-08-24T01:25:03.702Z,3.40
2022-08-24T01:27:28.346Z,3.42
2022-08-24T01:29:53.386Z,3.50
2022-08-24T01:32:20.914Z,3.60
2022-08-24T01:34:45.251Z,3.60
2022-08-24T01:37:12.717Z,2.83
2022-08-24T01:39:42.052Z,3.55
2022-08-24T01:42:08.024Z,3.30
2022-08-24T01:44:35.836Z,2.95
2022-08-24T01:46:59.532Z,3.20
2022-08-24T01:49:30.636Z,3.25
2022-08-24T01:51:56.795Z,3.28
2022-08-24T01:54:20.754Z,3.22
2022-08-24T01:56:45.070Z,3.45
2022-08-24T01:59:12.488Z,3.30
2022-08-24T02:01:43.267Z,3.55
2022-08-24T02:04:08.790Z,3.22
2022-08-24T02:06:33.742Z,3.38
2022-08-24T02:08:57.430Z,3.05
2022-08-24T02:11:21.695Z,3.10
2022-08-24T02:13:45.397Z,3.75
2022-08-24T02:16:10.607Z,3.65
2022-08-24T02:18:35.235Z,3.53
2022-08-24T02:21:00.071Z,3.17
2022-08-24T02:23:25.152Z,3.50
2022-08-24T02:25:50.204Z,3.08
2022-08-24T02:28:14.407Z,3.22
2022-08-24T02:30:38.361Z,3.20
2022-08-24T02:33:04.190Z,3.60
2022-08-24T02:35:29.794Z,3.40
2022-08-24T02:37:53.998Z,3.33
2022-08-24T02:40:18.163Z,3.40
2022-08-24T02:42:42.815Z,3.47
2022-08-24T02:45:08.361Z,3.30
2022-08-24T02:47:38.301Z,3.80
2022-08-24T02:50:06.819Z,3.70
2022-08-24T02:52:30.786Z,3.30
2022-08-24T02:54:54.656Z,4.07
2022-08-24T02:57:18.582Z,3.63
2022-08-24T02:59:42.367Z,3.28
2022-08-24T03:02:06.674Z,3.25
2022-08-24T03:04:30.437Z,3.58
2022-08-24T03:06:57.422Z,3.15
2022-08-24T03:09:23.376Z,3.70
2022-08-24T03:11:47.847Z,3.30
2022-08-24T03:14:13.199Z,3.53
2022-08-24T03:16:38.608Z,3.50
2022-08-24T03:19:02.546Z,4.32
2022-08-24T03:21:30.018Z,4.38
2022-08-24T03:23:55.165Z,3.83
2022-08-24T03:26:19.112Z,4.55
2022-08-24T03:28:44.661Z,3.95
2022-08-24T03:31:09.745Z,4.30
2022-08-24T03:33:34.468Z,4.30
2022-08-24T03:35:58.254Z,4.40
2022-08-24T03:38:23.142Z,3.97
2022-08-24T03:40:48.859Z,4.53
2022-08-24T03:43:33.260Z,4.38
2022-08-24T03:45:57.258Z,3.90
2022-08-24T03:48:21.493Z,3.97
2022-08-24T03:50:46.677Z,3.60
2022-08-24T03:53:11.168Z,4.15
2022-08-24T03:55:34.879Z,3.85
2022-08-24T03:58:00.002Z,3.97
2022-08-24T04:00:24.610Z,4.00
2022-08-24T04:02:54.181Z,3.85
2022-08-24T04:05:20.085Z,3.72
2022-08-24T04:07:44.221Z,3.35
2022-08-24T04:10:09.434Z,3.95
2022-08-24T04:12:33.079Z,3.33
2022-08-24T04:14:58.174Z,3.20
2022-08-24T04:17:24.454Z,3.53
2022-08-24T04:19:58.449Z,3.50
2022-08-24T04:22:34.240Z,3.63
2022-08-24T04:24:59.814Z,3.40
2022-08-24T04:27:25.435Z,3.40
2022-08-24T04:29:49.371Z,3.75
2022-08-24T04:32:15.613Z,3.75
2022-08-24T04:34:39.929Z,3.80
2022-08-24T04:37:03.659Z,3.55
2022-08-24T04:39:27.355Z,3.72
2022-08-24T04:41:51.020Z,3.92
2022-08-24T04:44:17.201Z,3.60
2022-08-24T04:46:41.097Z,3.85
2022-08-24T04:49:07.192Z,4.00
2022-08-24T04:51:36.200Z,4.10
2022-08-24T04:54:00.536Z,4.35
2022-08-24T04:56:26.341Z,4.68
2022-08-24T04:58:53.710Z,4.07
2022-08-24T05:01:22.096Z,5.00
2022-08-24T05:03:47.853Z,4.22
2022-08-24T05:06:15.456Z,3.97
2022-08-24T05:08:39.730Z,4.90
2022-08-24T05:11:08.334Z,4.32
2022-08-24T05:13:32.344Z,4.85
2022-08-24T05:15:56.069Z,4.60
2022-08-24T05:18:20.421Z,4.93
2022-08-24T05:20:46.429Z,3.97
2022-08-24T05:23:12.914Z,4.22
2022-08-24T05:25:37.281Z,4.90
2022-08-24T05:28:01.049Z,4.53
2022-08-24T05:30:25.044Z,4.47
2022-08-24T05:32:49.312Z,4.20
2022-08-24T05:35:14.126Z,3.83
2022-08-24T05:37:39.746Z,4.50
2022-08-24T05:40:18.806Z,4.20
2022-08-24T05:42:50.437Z,4.30
2022-08-24T05:45:14.375Z,3.67
2022-08-24T05:47:38.889Z,4.32
2022-08-24T05:50:15.059Z,4.03
2022-08-24T05:52:39.552Z,4.32
2022-08-24T05:55:04.325Z,4.13
2022-08-24T05:57:34.550Z,4.18
2022-08-24T06:00:11.273Z,4.50
2022-08-24T06:02:39.429Z,4.50
2022-08-24T06:05:03.250Z,4.10
2022-08-24T06:07:27.050Z,4.47
2022-08-24T06:09:54.201Z,4.47
2022-08-24T06:12:18.697Z,4.90
2022-08-24T06:14:47.937Z,4.28
2022-08-24T06:17:15.867Z,4.90
2022-08-24T06:19:40.611Z,5.07
2022-08-24T06:22:05.198Z,5.53
2022-08-24T06:24:49.369Z,4.70
2022-08-24T06:27:23.964Z,5.10
2022-08-24T06:29:53.285Z,4.88
2022-08-24T06:32:36.223Z,5.30
2022-08-24T06:35:00.263Z,5.60
2022-08-24T06:37:26.557Z,5.90
2022-08-24T06:39:55.042Z,5.93
2022-08-24T06:42:25.555Z,5.38
2022-08-24T06:44:49.511Z,5.50
2022-08-24T06:47:19.953Z,5.85
2022-08-24T06:49:45.961Z,6.03
2022-08-24T06:52:11.033Z,6.78
2022-08-24T06:54:35.005Z,6.50
2022-08-24T06:57:00.947Z,6.63
2022-08-24T06:59:27.034Z,6.95
2022-08-24T07:01:51.712Z,6.90
2022-08-24T07:04:17.012Z,7.43
2022-08-24T07:06:58.976Z,6.20
2022-08-24T07:09:24.902Z,6.32
2022-08-24T07:11:49.078Z,5.95
2022-08-24T07:14:12.850Z,5.40
2022-08-24T07:16:38.019Z,5.25
2022-08-24T07:19:03.694Z,5.55
2022-08-24T07:21:33.440Z,5.13
2022-08-24T07:24:00.040Z,4.90
2022-08-24T07:26:27.216Z,4.75
2022-08-24T07:28:51.561Z,5.20
2022-08-24T07:31:15.935Z,5.22
2022-08-24T07:33:48.631Z,4.90
2022-08-24T07:36:12.860Z,10.05
2022-08-24T07:38:47.644Z,4.85
2022-08-24T07:41:38.073Z,4.97
2022-08-24T07:44:00.061Z,4.82
2022-08-24T07:46:23.945Z,9.07
2022-08-24T07:49:00.063Z,9.18
2022-08-24T07:51:34.236Z,4.00
2022-08-24T07:53:59.267Z,4.28
2022-08-24T07:56:28.469Z,4.43
2022-08-24T07:58:54.397Z,3.88
2022-08-24T08:01:19.831Z,3.92
2022-08-24T08:03:43.708Z,3.80
2022-08-24T08:06:16.141Z,3.72
2022-08-24T08:08:42.798Z,3.70
2022-08-24T08:11:10.259Z,4.20
2022-08-24T08:13:36.103Z,3.75
2022-08-24T08:16:01.579Z,4.10
2022-08-24T08:18:26.241Z,3.80
2022-08-24T08:20:51.161Z,4.10
2022-08-24T08:23:32.065Z,3.70
2022-08-24T08:26:14.406Z,3.88
2022-08-24T08:28:46.900Z,3.95
2022-08-24T08:31:10.638Z,3.80
2022-08-24T08:33:37.110Z,3.75
2022-08-24T08:36:08.147Z,4.00
2022-08-24T08:38:35.563Z,3.58
2022-08-24T08:41:26.744Z,3.60
2022-08-24T08:44:15.964Z,3.60
2022-08-24T08:46:53.077Z,4.03
2022-08-24T08:49:51.185Z,3.88
2022-08-24T08:53:09.986Z,3.20
2022-08-24T08:55:38.722Z,3.80
2022-08-24T08:58:25.129Z,3.60
2022-08-24T09:01:01.809Z,3.45
2022-08-24T09:04:21.374Z,4.50
2022-08-24T09:07:35.715Z,4.43
2022-08-24T09:10:29.566Z,4.00
2022-08-24T09:13:22.418Z,4.45
2022-08-24T09:16:10.367Z,3.65
2022-08-24T09:18:56.263Z,4.10
2022-08-24T09:21:40.946Z,3.90
2022-08-24T09:24:23.623Z,3.88
2022-08-24T09:27:06.874Z,3.70
2022-08-24T09:29:47.386Z,3.53
2022-08-24T09:32:37.727Z,3.83
2022-08-24T09:35:05.781Z,4.20
2022-08-24T09:37:59.922Z,3.97
2022-08-24T09:40:40.625Z,3.65
2022-08-24T09:43:47.140Z,3.85
2022-08-24T09:47:18.499Z,3.90
2022-08-24T09:50:41.266Z,4.35
2022-08-24T09:54:00.292Z,4.40
2022-08-24T09:56:42.605Z,4.70
2022-08-24T09:59:41.054Z,6.10
2022-08-24T10:02:28.763Z,5.72
2022-08-24T10:05:05.600Z,5.00
2022-08-24T10:07:43.027Z,4.78
2022-08-24T10:10:31.173Z,5.03
2022-08-24T10:13:15.111Z,4.85
2022-08-24T10:15:49.848Z,4.35
2022-08-24T10:18:35.212Z,3.92
2022-08-24T10:21:15.199Z,3.80
2022-08-24T10:24:16.162Z,3.90
2022-08-24T10:27:04.388Z,3.85
2022-08-24T10:29:45.630Z,3.28
2022-08-24T10:32:26.278Z,3.35
2022-08-24T10:35:11.801Z,3.58
2022-08-24T10:38:27.075Z,2.97
2022-08-24T10:41:06.851Z,3.40
2022-08-24T10:44:04.436Z,3.17
2022-08-24T10:46:54.378Z,3.45
2022-08-24T10:50:12.189Z,3.60
2022-08-24T10:53:17.189Z,3.00
2022-08-24T10:55:42.570Z,2.67
2022-08-24T10:58:46.634Z,2.60
2022-08-24T11:01:19.750Z,2.28
2022-08-24T11:03:54.514Z,2.40
2022-08-24T11:06:20.366Z,3.08
2022-08-24T11:08:56.306Z,2.90
2022-08-24T11:11:28.627Z,3.08
2022-08-24T11:13:58.982Z,3.45
2022-08-24T11:16:30.438Z,2.60
2022-08-24T11:18:56.823Z,3.13
2022-08-24T11:21:36.270Z,2.65
2022-08-24T11:24:06.411Z,2.92
2022-08-24T11:26:30.704Z,2.83
2022-08-24T11:29:01.186Z,3.22
2022-08-24T11:31:35.998Z,2.95
2022-08-24T11:34:03.728Z,2.97
2022-08-24T11:36:30.377Z,2.55
2022-08-24T11:39:17.760Z,2.88
2022-08-24T11:41:55.040Z,2.67
2022-08-24T11:44:41.118Z,2.75
2022-08-24T11:47:23.508Z,3.10
2022-08-24T11:49:56.604Z,2.60
2022-08-24T11:52:40.795Z,2.38
2022-08-24T11:55:13.942Z,2.22
2022-08-24T11:57:47.681Z,2.00
2022-08-24T12:00:21.635Z,2.20
2022-08-24T12:02:59.248Z,2.28
2022-08-24T12:05:31.520Z,1.90
2022-08-24T12:08:08.069Z,2.03
2022-08-24T12:10:46.047Z,2.30
2022-08-24T12:13:23.739Z,2.42
2022-08-24T12:15:52.767Z,2.20
2022-08-24T12:18:28.402Z,2.30
2022-08-24T12:20:53.561Z,2.55
2022-08-24T12:23:27.225Z,1.90
2022-08-24T12:26:04.671Z,1.95
2022-08-24T12:28:37.757Z,2.25
2022-08-24T12:31:12.319Z,2.13
2022-08-24T12:33:39.415Z,2.17
2022-08-24T12:36:11.389Z,2.33
2022-08-24T12:38:39.930Z,2.00
2022-08-24T12:41:19.296Z,2.70
2022-08-24T12:43:49.996Z,2.03
2022-08-24T12:46:17.304Z,1.80
2022-08-24T12:48:46.378Z,2.05
2022-08-24T12:51:23.646Z,2.25
2022-08-24T12:54:25.852Z,2.15
2022-08-24T12:57:12.105Z,2.30
2022-08-24T12:59:43.546Z,2.22
2022-08-24T13:02:27.791Z,2.10
2022-08-24T13:05:01.638Z,1.77
2022-08-24T13:07:31.855Z,1.83
2022-08-24T13:10:14.619Z,1.75
2022-08-24T13:13:14.412Z,1.70
2022-08-24T13:16:03.034Z,1.73
2022-08-24T13:19:13.564Z,1.90
2022-08-24T13:21:55.098Z,1.75
2022-08-24T13:24:55.287Z,1.70
2022-08-24T13:28:08.433Z,1.90
2022-08-24T13:31:20.407Z,1.95
2022-08-24T13:33:50.532Z,1.80
2022-08-24T13:36:53.635Z,1.95
2022-08-24T13:39:39.310Z,1.55
2022-08-24T13:42:15.866Z,1.90
2022-08-24T13:45:16.350Z,1.63
2022-08-24T13:47:59.262Z,1.83
2022-08-24T13:50:36.099Z,2.17
2022-08-24T13:53:26.318Z,1.70
2022-08-24T13:55:54.567Z,1.80
2022-08-24T13:58:36.465Z,1.67
2022-08-24T14:01:20.385Z,1.80
2022-08-24T14:04:13.995Z,2.28
2022-08-24T14:06:50.755Z,1.90
2022-08-24T14:09:37.553Z,1.90
2022-08-24T14:12:43.481Z,2.00
2022-08-24T14:15:24.671Z,1.80
2022-08-24T14:17:58.896Z,1.85
2022-08-24T14:21:05.719Z,1.77
2022-08-24T14:23:47.164Z,2.25
2022-08-24T14:27:10.646Z,1.92
2022-08-24T14:29:45.250Z,2.10
2022-08-24T14:33:04.074Z,2.05
2022-08-24T14:35:39.724Z,2.17
2022-08-24T14:38:29.147Z,2.10
2022-08-24T14:41:26.769Z,2.00
2022-08-24T14:44:09.749Z,1.90
2022-08-24T14:46:46.343Z,2.00
2022-08-24T14:49:21.686Z,1.88
2022-08-24T14:52:02.312Z,2.03
2022-08-24T14:54:40.939Z,2.10
2022-08-24T14:57:28.068Z,2.00
2022-08-24T15:00:07.345Z,2.10
2022-08-24T15:03:11.839Z,2.03
2022-08-24T15:05:45.674Z,1.98
2022-08-24T15:08:39.319Z,1.65
2022-08-24T15:11:12.667Z,1.83
2022-08-24T15:13:48.304Z,1.88
2022-08-24T15:16:16.234Z,2.00
2022-08-24T15:18:46.563Z,1.98
2022-08-24T15:21:38.213Z,1.80
2022-08-24T15:24:16.645Z,2.00
2022-08-24T15:27:02.760Z,1.67
2022-08-24T15:29:31.161Z,1.70
2022-08-24T15:32:05.143Z,1.50
2022-08-24T15:34:45.605Z,1.70
2022-08-24T15:37:11.697Z,1.60
2022-08-24T15:39:35.308Z,1.83
2022-08-24T15:41:59.562Z,1.73
2022-08-24T15:44:26.345Z,1.85
2022-08-24T15:46:55.651Z,1.90
2022-08-24T15:49:23.923Z,1.70
2022-08-24T15:51:53.599Z,1.83
2022-08-24T15:54:33.457Z,1.50
2022-08-24T15:57:01.655Z,1.70
2022-08-24T15:59:29.882Z,1.90
2022-08-24T16:02:31.521Z,1.42
2022-08-24T16:05:14.174Z,1.98
2022-08-24T16:08:07.593Z,1.80
2022-08-24T16:10:39.196Z,1.70
2022-08-24T16:13:11.704Z,1.75
2022-08-24T16:15:35.835Z,1.92
2022-08-24T16:18:00.324Z,1.70
2022-08-24T16:20:35.862Z,2.17
2022-08-24T16:23:03.855Z,1.70
2022-08-24T16:25:32.728Z,1.70
2022-08-24T16:28:07.685Z,1.90
2022-08-24T16:30:46.666Z,1.92
2022-08-24T16:33:44.455Z,1.90
2022-08-24T16:36:10.905Z,1.92
2022-08-24T16:38:36.475Z,2.17
2022-08-24T16:41:02.922Z,1.80
2022-08-24T16:43:26.784Z,1.75
2022-08-24T16:45:50.853Z,1.80
2022-08-24T16:48:14.611Z,2.00
2022-08-24T16:50:38.227Z,2.22
2022-08-24T16:53:01.908Z,1.90
2022-08-24T16:55:28.372Z,1.88
2022-08-24T16:57:53.449Z,2.03
2022-08-24T17:00:22.096Z,2.22
2022-08-24T17:02:48.207Z,2.35
2022-08-24T17:05:12.494Z,2.20
2022-08-24T17:07:36.325Z,2.40
2022-08-24T17:10:02.552Z,2.30
2022-08-24T17:12:27.347Z,1.98
2022-08-24T17:14:52.359Z,2.00
2022-08-24T17:17:21.378Z,2.17
2022-08-24T17:19:45.943Z,2.45
2022-08-24T17:22:12.995Z,2.35
2022-08-24T17:24:40.029Z,2.13
2022-08-24T17:27:04.990Z,2.20
2022-08-24T17:29:29.189Z,2.10
2022-08-24T17:31:54.735Z,2.60
2022-08-24T17:34:20.487Z,2.03
2022-08-24T17:36:45.963Z,2.28
2022-08-24T17:39:09.575Z,2.28
2022-08-24T17:41:33.236Z,1.95
2022-08-24T17:43:57.502Z,2.33
2022-08-24T17:46:22.473Z,2.30
2022-08-24T17:48:48.706Z,2.40
2022-08-24T17:51:13.871Z,2.78
2022-08-24T17:53:37.474Z,2.30
2022-08-24T17:56:01.225Z,2.65
2022-08-24T17:58:24.911Z,2.65
2022-08-24T18:00:51.749Z,2.58
2022-08-24T18:03:16.731Z,2.88
2022-08-24T18:05:42.427Z,2.63
2022-08-24T18:08:07.647Z,2.70
2022-08-24T18:10:33.365Z,2.33
2022-08-24T18:12:58.266Z,2.78
2022-08-24T18:15:22.013Z,2.85
2022-08-24T18:17:58.062Z,2.85
2022-08-24T18:20:25.957Z,2.72
2022-08-24T18:22:53.727Z,2.47
2022-08-24T18:25:22.926Z,2.83
2022-08-24T18:27:48.576Z,2.47
2022-08-24T18:30:21.011Z,2.85
2022-08-24T18:32:47.666Z,2.75
2022-08-24T18:35:11.275Z,2.78
2022-08-24T18:37:34.997Z,3.00
2022-08-24T18:40:00.458Z,2.95
2022-08-24T18:42:27.993Z,2.95
2022-08-24T18:44:51.659Z,3.17
2022-08-24T18:47:15.625Z,2.90
2022-08-24T18:49:39.202Z,3.47
2022-08-24T18:52:04.308Z,3.63
2022-08-24T18:54:41.462Z,3.60
2022-08-24T18:57:08.726Z,3.33
2022-08-24T18:59:32.472Z,2.72
2022-08-24T19:02:13.751Z,3.25
2022-08-24T19:04:43.572Z,3.05
2022-08-24T19:07:07.171Z,3.28
2022-08-24T19:09:34.353Z,3.60
2022-08-24T19:11:58.358Z,3.58
2022-08-24T19:14:23.673Z,2.92
2022-08-24T19:16:48.695Z,3.22
2022-08-24T19:19:15.250Z,3.75
2022-08-24T19:21:41.447Z,3.42
2022-08-24T19:24:07.974Z,3.90
2022-08-24T19:26:32.365Z,3.30
2022-08-24T19:28:57.156Z,3.78
2022-08-24T19:31:25.624Z,3.63
2022-08-24T19:33:52.039Z,3.53
2022-08-24T19:36:16.352Z,3.50
2022-08-24T19:38:40.212Z,3.38
2022-08-24T19:41:12.601Z,3.53
2022-08-24T19:43:57.860Z,4.00
2022-08-24T19:46:22.218Z,3.05
2022-08-24T19:48:45.775Z,3.80
2022-08-24T19:51:12.064Z,4.00
2022-08-24T19:53:38.128Z,3.53
2022-08-24T19:56:03.674Z,3.38
2022-08-24T19:58:36.936Z,3.35
2022-08-24T20:01:07.245Z,3.80
2022-08-24T20:03:32.391Z,3.25
2022-08-24T20:05:56.218Z,3.72
2022-08-24T20:08:20.353Z,3.88
2022-08-24T20:10:43.927Z,3.80
2022-08-24T20:13:09.077Z,3.60
2022-08-24T20:15:34.435Z,3.53
2022-08-24T20:17:59.461Z,3.33
2022-08-24T20:20:26.258Z,3.75
2022-08-24T20:22:49.959Z,3.75
2022-08-24T20:25:14.770Z,3.67
2022-08-24T20:27:39.103Z,3.78
2022-08-24T20:30:03.029Z,3.30
2022-08-24T20:32:27.904Z,2.97
2022-08-24T20:34:51.815Z,3.17
2022-08-24T20:37:21.531Z,3.70
2022-08-24T20:39:45.153Z,3.47
2022-08-24T20:42:14.888Z,3.47
2022-08-24T20:44:40.132Z,3.30
2022-08-24T20:47:04.342Z,3.25
2022-08-24T20:49:28.734Z,3.28
2022-08-24T20:51:52.591Z,3.40
2022-08-24T20:54:18.096Z,3.85
2022-08-24T20:56:42.144Z,3.63
2022-08-24T20:59:10.155Z,3.55
2022-08-24T21:01:34.808Z,3.80
2022-08-24T21:04:04.234Z,3.70
2022-08-24T21:06:28.868Z,3.72
2022-08-24T21:08:54.288Z,3.55
2022-08-24T21:11:20.533Z,3.78
2022-08-24T21:13:44.188Z,3.70
2022-08-24T21:16:09.060Z,3.47
2022-08-24T21:18:32.746Z,3.85
2022-08-24T21:21:03.777Z,3.78
2022-08-24T21:23:28.366Z,3.60
2022-08-24T21:25:52.443Z,3.78
2022-08-24T21:28:18.133Z,4.07
2022-08-24T21:30:41.687Z,4.20
2022-08-24T21:33:24.562Z,3.40
2022-08-24T21:35:48.718Z,3.92
2022-08-24T21:38:13.830Z,3.90
2022-08-24T21:40:39.017Z,3.53
2022-08-24T21:43:02.831Z,3.38
2022-08-24T21:45:37.783Z,3.78
2022-08-24T21:48:01.722Z,3.20
2022-08-24T21:50:25.911Z,3.38
2022-08-24T21:52:51.230Z,3.22
2022-08-24T21:55:17.367Z,3.22
2022-08-24T21:57:41.708Z,3.47
2022-08-24T22:00:09.309Z,3.13
2022-08-24T22:02:34.317Z,3.08
2022-08-24T22:04:57.966Z,3.63
2022-08-24T22:07:21.636Z,3.30
2022-08-24T22:09:45.373Z,2.97
2022-08-24T22:12:09.682Z,3.53
2022-08-24T22:14:33.454Z,3.10
2022-08-24T22:16:57.269Z,3.85
2022-08-24T22:19:22.341Z,3.58
2022-08-24T22:21:48.094Z,3.40
2022-08-24T22:24:12.591Z,3.40
2022-08-24T22:26:37.431Z,3.63
2022-08-24T22:29:02.320Z,3.63
2022-08-24T22:31:28.987Z,3.45
2022-08-24T22:33:52.673Z,3.20
2022-08-24T22:36:18.904Z,2.90
2022-08-24T22:38:42.520Z,3.03
2022-08-24T22:41:06.241Z,3.20
2022-08-24T22:43:51.230Z,3.13
2022-08-24T22:46:15.465Z,3.35
2022-08-24T22:48:39.131Z,2.90
2022-08-24T22:51:03.438Z,3.38
2022-08-24T22:53:28.638Z,3.63
2022-08-24T22:55:52.254Z,2.88
2022-08-24T22:58:15.970Z,3.22
2022-08-24T23:00:40.892Z,3.53
2022-08-24T23:03:05.797Z,3.50
2022-08-24T23:05:29.578Z,4.05
2022-08-24T23:07:53.172Z,4.22
2022-08-24T23:10:18.345Z,4.05
2022-08-24T23:12:42.026Z,4.28
2022-08-24T23:15:06.880Z,3.97
2022-08-24T23:17:30.547Z,4.35
2022-08-24T23:20:06.710Z,3.85
2022-08-24T23:22:33.674Z,3.90
2022-08-24T23:24:58.463Z,3.85
2022-08-24T23:27:23.779Z,3.75
2022-08-24T23:29:49.470Z,3.53
2022-08-24T23:32:17.907Z,3.85
2022-08-24T23:34:42.376Z,3.85
2022-08-24T23:37:06.853Z,3.80
2022-08-24T23:39:30.730Z,3.20
2022-08-24T23:41:54.640Z,3.63
2022-08-24T23:44:25.861Z,3.58
2022-08-24T23:46:50.224Z,3.30
2022-08-24T23:49:15.669Z,3.80
2022-08-24T23:51:39.675Z,3.85
2022-08-24T23:54:05.030Z,3.90
2022-08-24T23:56:32.079Z,3.60
2022-08-24T23:58:57.011Z,3.72
